sensor_id;sensor_type;location;lat;lon;timestamp;pressure;altitude;pressure_sealevel;temperature;humidity
48015;BME280;33780;51.034;7.120;2023-02-10T00:01:58;102741.25;;;2.46;69.24
48015;BME280;33780;51.034;7.120;2023-02-10T00:04:23;102739.50;;;2.45;69.07
48015;BME280;33780;51.034;7.120;2023-02-10T00:06:48;102748.28;;;2.47;69.41
48015;BME280;33780;51.034;7.120;2023-02-10T00:09:14;102751.81;;;2.46;69.65
48015;BME280;33780;51.034;7.120;2023-02-10T00:11:39;102752.69;;;2.46;69.71
48015;BME280;33780;51.034;7.120;2023-02-10T00:14:25;102749.19;;;2.46;69.56
48015;BME280;33780;51.034;7.120;2023-02-10T00:16:51;102750.91;;;2.47;69.41
48015;BME280;33780;51.034;7.120;2023-02-10T00:19:22;102750.88;;;2.48;69.82
48015;BME280;33780;51.034;7.120;2023-02-10T00:21:48;102751.75;;;2.49;69.82
48015;BME280;33780;51.034;7.120;2023-02-10T00:24:13;102752.63;;;2.49;69.84
48015;BME280;33780;51.034;7.120;2023-02-10T00:26:38;102753.50;;;2.50;69.88
48015;BME280;33780;51.034;7.120;2023-02-10T00:29:04;102756.13;;;2.50;69.92
48015;BME280;33780;51.034;7.120;2023-02-10T00:31:29;102761.41;;;2.50;70.04
48015;BME280;33780;51.034;7.120;2023-02-10T00:33:55;102762.28;;;2.52;70.31
48015;BME280;33780;51.034;7.120;2023-02-10T00:36:20;102766.69;;;2.51;69.70
48015;BME280;33780;51.034;7.120;2023-02-10T00:38:47;102762.28;;;2.52;70.29
48015;BME280;33780;51.034;7.120;2023-02-10T00:41:17;102765.81;;;2.52;69.65
48015;BME280;33780;51.034;7.120;2023-02-10T00:43:43;102761.38;;;2.53;70.37
48015;BME280;33780;51.034;7.120;2023-02-10T00:46:10;102764.91;;;2.53;70.24
48015;BME280;33780;51.034;7.120;2023-02-10T00:48:36;102770.19;;;2.53;70.12
48015;BME280;33780;51.034;7.120;2023-02-10T00:51:02;102764.91;;;2.53;70.21
48015;BME280;33780;51.034;7.120;2023-02-10T00:53:28;102771.94;;;2.54;70.33
48015;BME280;33780;51.034;7.120;2023-02-10T00:55:53;102764.91;;;2.53;70.78
48015;BME280;33780;51.034;7.120;2023-02-10T00:58:18;102768.41;;;2.54;70.67
48015;BME280;33780;51.034;7.120;2023-02-10T01:00:44;102764.88;;;2.55;70.69
48015;BME280;33780;51.034;7.120;2023-02-10T01:03:09;102763.09;;;2.55;70.66
48015;BME280;33780;51.034;7.120;2023-02-10T01:05:35;102763.97;;;2.56;70.63
48015;BME280;33780;51.034;7.120;2023-02-10T01:08:00;102767.47;;;2.56;70.86
48015;BME280;33780;51.034;7.120;2023-02-10T01:10:26;102772.75;;;2.56;70.66
48015;BME280;33780;51.034;7.120;2023-02-10T01:12:51;102768.38;;;2.55;70.64
48015;BME280;33780;51.034;7.120;2023-02-10T01:15:17;102767.47;;;2.56;70.68
48015;BME280;33780;51.034;7.120;2023-02-10T01:17:42;102770.09;;;2.58;70.37
48015;BME280;33780;51.034;7.120;2023-02-10T01:20:07;102774.50;;;2.57;70.50
48015;BME280;33780;51.034;7.120;2023-02-10T01:22:34;102773.59;;;2.58;70.74
48015;BME280;33780;51.034;7.120;2023-02-10T01:24:59;102782.41;;;2.59;70.32
48015;BME280;33780;51.034;7.120;2023-02-10T01:27:25;102783.31;;;2.58;70.64
48015;BME280;33780;51.034;7.120;2023-02-10T01:29:50;102785.06;;;2.57;70.76
48015;BME280;33780;51.034;7.120;2023-02-10T01:32:15;102792.97;;;2.59;70.55
48015;BME280;33780;51.034;7.120;2023-02-10T01:34:41;102782.41;;;2.59;71.25
48015;BME280;33780;51.034;7.120;2023-02-10T01:37:06;102785.94;;;2.58;70.90
48015;BME280;33780;51.034;7.120;2023-02-10T01:39:31;102783.31;;;2.58;70.70
48015;BME280;33780;51.034;7.120;2023-02-10T01:41:56;102793.84;;;2.59;70.86
48015;BME280;33780;51.034;7.120;2023-02-10T01:46:48;102785.03;;;2.59;70.88
48015;BME280;33780;51.034;7.120;2023-02-10T01:49:19;102790.34;;;2.59;71.11
48015;BME280;33780;51.034;7.120;2023-02-10T01:51:49;102789.47;;;2.58;71.45
48015;BME280;33780;51.034;7.120;2023-02-10T01:54:22;102792.09;;;2.58;71.24
48015;BME280;33780;51.034;7.120;2023-02-10T01:56:49;102794.72;;;2.60;71.63
48015;BME280;33780;51.034;7.120;2023-02-10T01:59:15;102797.34;;;2.60;71.25
48015;BME280;33780;51.034;7.120;2023-02-10T02:01:43;102807.94;;;2.60;71.42
48015;BME280;33780;51.034;7.120;2023-02-10T02:04:08;102801.75;;;2.61;71.58
48015;BME280;33780;51.034;7.120;2023-02-10T02:06:34;102813.19;;;2.61;71.65
48015;BME280;33780;51.034;7.120;2023-02-10T02:09:00;102802.63;;;2.61;71.22
48015;BME280;33780;51.034;7.120;2023-02-10T02:14:01;102812.31;;;2.61;72.02
48015;BME280;33780;51.034;7.120;2023-02-10T02:19:58;102806.19;;;2.59;71.64
48015;BME280;33780;51.034;7.120;2023-02-10T02:22:51;102808.84;;;2.59;71.91
48015;BME280;33780;51.034;7.120;2023-02-10T02:25:35;102789.50;;;2.57;71.63
48015;BME280;33780;51.034;7.120;2023-02-10T02:28:25;102795.66;;;2.57;71.67
48015;BME280;33780;51.034;7.120;2023-02-10T02:34:01;102819.41;;;2.59;71.96
48015;BME280;33780;51.034;7.120;2023-02-10T02:36:32;102810.59;;;2.58;71.91
48015;BME280;33780;51.034;7.120;2023-02-10T02:39:00;102817.63;;;2.59;72.18
48015;BME280;33780;51.034;7.120;2023-02-10T02:41:27;102814.09;;;2.60;72.21
48015;BME280;33780;51.034;7.120;2023-02-10T02:43:54;102814.09;;;2.60;72.08
48015;BME280;33780;51.034;7.120;2023-02-10T02:46:52;102823.75;;;2.61;71.98
48015;BME280;33780;51.034;7.120;2023-02-10T02:49:31;102819.34;;;2.62;72.14
48015;BME280;33780;51.034;7.120;2023-02-10T02:52:07;102814.06;;;2.62;71.81
48015;BME280;33780;51.034;7.120;2023-02-10T02:54:48;102821.06;;;2.63;72.20
48015;BME280;33780;51.034;7.120;2023-02-10T02:59:58;102831.66;;;2.63;71.94
48015;BME280;33780;51.034;7.120;2023-02-10T03:02:27;102831.63;;;2.64;72.54
48015;BME280;33780;51.034;7.120;2023-02-10T03:04:54;102825.47;;;2.64;72.47
48015;BME280;33780;51.034;7.120;2023-02-10T03:07:19;102834.25;;;2.64;71.99
48015;BME280;33780;51.034;7.120;2023-02-10T03:09:45;102833.38;;;2.65;72.40
48015;BME280;33780;51.034;7.120;2023-02-10T03:12:10;102835.13;;;2.65;72.27
48015;BME280;33780;51.034;7.120;2023-02-10T03:14:37;102839.53;;;2.66;72.42
48015;BME280;33780;51.034;7.120;2023-02-10T03:17:03;102838.66;;;2.65;72.60
48015;BME280;33780;51.034;7.120;2023-02-10T03:19:29;102840.41;;;2.65;72.45
48015;BME280;33780;51.034;7.120;2023-02-10T03:21:54;102837.78;;;2.65;72.03
48015;BME280;33780;51.034;7.120;2023-02-10T03:24:19;102836.91;;;2.64;72.35
48015;BME280;33780;51.034;7.120;2023-02-10T03:26:45;102829.88;;;2.63;72.24
48015;BME280;33780;51.034;7.120;2023-02-10T03:29:11;102839.59;;;2.63;72.55
48015;BME280;33780;51.034;7.120;2023-02-10T03:31:37;102841.38;;;2.61;72.64
48015;BME280;33780;51.034;7.120;2023-02-10T03:34:03;102843.16;;;2.60;72.69
48015;BME280;33780;51.034;7.120;2023-02-10T03:36:28;102846.69;;;2.59;72.26
48015;BME280;33780;51.034;7.120;2023-02-10T03:38:54;102844.06;;;2.59;72.77
48015;BME280;33780;51.034;7.120;2023-02-10T03:41:19;102831.78;;;2.57;72.15
48015;BME280;33780;51.034;7.120;2023-02-10T03:43:44;102829.13;;;2.57;72.90
48015;BME280;33780;51.034;7.120;2023-02-10T03:46:10;102826.53;;;2.55;72.64
48015;BME280;33780;51.034;7.120;2023-02-10T03:48:35;102826.56;;;2.54;72.65
48015;BME280;33780;51.034;7.120;2023-02-10T03:51:03;102821.31;;;2.52;72.20
48015;BME280;33780;51.034;7.120;2023-02-10T03:53:30;102813.38;;;2.51;72.92
48015;BME280;33780;51.034;7.120;2023-02-10T03:55:55;102806.38;;;2.48;72.66
48015;BME280;33780;51.034;7.120;2023-02-10T03:58:21;102802.00;;;2.47;72.38
48015;BME280;33780;51.034;7.120;2023-02-10T04:00:46;102800.25;;;2.46;72.57
48015;BME280;33780;51.034;7.120;2023-02-10T04:03:11;102789.75;;;2.43;72.43
48015;BME280;33780;51.034;7.120;2023-02-10T04:05:37;102792.41;;;2.41;72.70
48015;BME280;33780;51.034;7.120;2023-02-10T04:08:02;102777.50;;;2.39;72.71
48015;BME280;33780;51.034;7.120;2023-02-10T04:10:27;102788.09;;;2.37;72.77
48015;BME280;33780;51.034;7.120;2023-02-10T04:12:53;102785.53;;;2.34;72.80
48015;BME280;33780;51.034;7.120;2023-02-10T04:15:18;102789.03;;;2.33;72.40
48015;BME280;33780;51.034;7.120;2023-02-10T04:17:44;102803.16;;;2.31;72.11
48015;BME280;33780;51.034;7.120;2023-02-10T04:20:09;102801.44;;;2.30;72.51
48015;BME280;33780;51.034;7.120;2023-02-10T04:22:35;102806.75;;;2.28;72.29
48015;BME280;33780;51.034;7.120;2023-02-10T04:25:00;102802.41;;;2.26;72.15
48015;BME280;33780;51.034;7.120;2023-02-10T04:27:25;102809.47;;;2.24;71.82
48015;BME280;33780;51.034;7.120;2023-02-10T04:29:51;102812.19;;;2.21;72.11
48015;BME280;33780;51.034;7.120;2023-02-10T04:32:16;102821.06;;;2.17;72.81
48015;BME280;33780;51.034;7.120;2023-02-10T04:34:41;102818.44;;;2.13;72.36
48015;BME280;33780;51.034;7.120;2023-02-10T04:37:06;102814.97;;;2.11;72.50
48015;BME280;33780;51.034;7.120;2023-02-10T04:39:32;102832.63;;;2.08;71.87
48015;BME280;33780;51.034;7.120;2023-02-10T04:41:57;102826.50;;;2.06;72.01
48015;BME280;33780;51.034;7.120;2023-02-10T04:44:22;102825.69;;;2.02;72.33
48015;BME280;33780;51.034;7.120;2023-02-10T04:46:47;102832.78;;;2.00;71.61
48015;BME280;33780;51.034;7.120;2023-02-10T04:49:15;102835.44;;;1.99;71.61
48015;BME280;33780;51.034;7.120;2023-02-10T04:51:40;102825.78;;;1.96;72.03
48015;BME280;33780;51.034;7.120;2023-02-10T04:54:05;102833.75;;;1.93;71.69
48015;BME280;33780;51.034;7.120;2023-02-10T04:56:31;102842.56;;;1.92;72.07
48015;BME280;33780;51.034;7.120;2023-02-10T04:58:56;102840.84;;;1.90;72.03
48015;BME280;33780;51.034;7.120;2023-02-10T05:01:21;102845.28;;;1.88;72.06
48015;BME280;33780;51.034;7.120;2023-02-10T05:03:46;102848.84;;;1.85;71.65
48015;BME280;33780;51.034;7.120;2023-02-10T05:06:14;102848.03;;;1.81;72.25
48015;BME280;33780;51.034;7.120;2023-02-10T05:08:40;102853.34;;;1.80;71.71
48015;BME280;33780;51.034;7.120;2023-02-10T05:11:11;102848.94;;;1.77;71.85
48015;BME280;33780;51.034;7.120;2023-02-10T05:13:37;102850.75;;;1.75;72.06
48015;BME280;33780;51.034;7.120;2023-02-10T05:16:02;102849.03;;;1.73;71.81
48015;BME280;33780;51.034;7.120;2023-02-10T05:18:32;102844.66;;;1.70;72.04
48015;BME280;33780;51.034;7.120;2023-02-10T05:20:58;102844.69;;;1.69;71.59
48015;BME280;33780;51.034;7.120;2023-02-10T05:23:25;102849.09;;;1.68;71.44
48015;BME280;33780;51.034;7.120;2023-02-10T05:25:50;102848.28;;;1.65;71.66
48015;BME280;33780;51.034;7.120;2023-02-10T05:28:16;102853.59;;;1.62;71.63
48015;BME280;33780;51.034;7.120;2023-02-10T05:30:41;102860.66;;;1.58;71.58
48015;BME280;33780;51.034;7.120;2023-02-10T05:33:06;102864.22;;;1.56;71.60
48015;BME280;33780;51.034;7.120;2023-02-10T05:35:32;102860.75;;;1.54;71.96
48015;BME280;33780;51.034;7.120;2023-02-10T05:37:57;102851.97;;;1.51;71.83
48015;BME280;33780;51.034;7.120;2023-02-10T05:40:22;102860.81;;;1.49;71.60
48015;BME280;33780;51.034;7.120;2023-02-10T05:42:49;102859.09;;;1.46;71.82
48015;BME280;33780;51.034;7.120;2023-02-10T05:45:15;102865.25;;;1.45;71.84
48015;BME280;33780;51.034;7.120;2023-02-10T05:47:40;102864.38;;;1.43;71.77
48015;BME280;33780;51.034;7.120;2023-02-10T05:50:05;102860.91;;;1.41;71.47
48015;BME280;33780;51.034;7.120;2023-02-10T05:52:30;102861.81;;;1.39;71.67
48015;BME280;33780;51.034;7.120;2023-02-10T05:54:56;102867.97;;;1.38;71.86
48015;BME280;33780;51.034;7.120;2023-02-10T05:57:21;102862.72;;;1.36;71.91
48015;BME280;33780;51.034;7.120;2023-02-10T05:59:46;102867.16;;;1.34;71.57
48015;BME280;33780;51.034;7.120;2023-02-10T06:02:11;102866.34;;;1.31;71.83
48015;BME280;33780;51.034;7.120;2023-02-10T06:04:37;102864.59;;;1.30;71.75
48015;BME280;33780;51.034;7.120;2023-02-10T06:07:02;102866.38;;;1.28;71.35
48015;BME280;33780;51.034;7.120;2023-02-10T06:09:27;102862.00;;;1.25;71.35
48015;BME280;33780;51.034;7.120;2023-02-10T06:11:53;102862.88;;;1.24;71.31
48015;BME280;33780;51.034;7.120;2023-02-10T06:14:19;102857.63;;;1.23;71.52
48015;BME280;33780;51.034;7.120;2023-02-10T06:16:44;102861.16;;;1.21;71.72
48015;BME280;33780;51.034;7.120;2023-02-10T06:19:10;102862.06;;;1.20;71.39
48015;BME280;33780;51.034;7.120;2023-02-10T06:21:35;102863.81;;;1.20;71.52
48015;BME280;33780;51.034;7.120;2023-02-10T06:24:00;102871.72;;;1.20;71.45
48015;BME280;33780;51.034;7.120;2023-02-10T06:26:26;102878.78;;;1.18;71.16
48015;BME280;33780;51.034;7.120;2023-02-10T06:28:53;102887.59;;;1.17;71.34
48015;BME280;33780;51.034;7.120;2023-02-10T06:31:18;102887.63;;;1.15;71.08
48015;BME280;33780;51.034;7.120;2023-02-10T06:33:43;102892.91;;;1.14;71.13
48015;BME280;33780;51.034;7.120;2023-02-10T06:36:18;102899.97;;;1.12;71.24
48015;BME280;33780;51.034;7.120;2023-02-10T06:38:57;102900.00;;;1.09;71.11
48015;BME280;33780;51.034;7.120;2023-02-10T06:41:22;102894.72;;;1.07;70.58
48015;BME280;33780;51.034;7.120;2023-02-10T06:46:26;102902.63;;;1.07;71.07
48015;BME280;33780;51.034;7.120;2023-02-10T06:48:58;102912.31;;;1.05;70.69
48015;BME280;33780;51.034;7.120;2023-02-10T06:51:25;102914.97;;;1.04;70.90
48015;BME280;33780;51.034;7.120;2023-02-10T06:53:51;102920.25;;;1.04;71.35
48015;BME280;33780;51.034;7.120;2023-02-10T06:56:16;102914.09;;;1.03;70.92
48015;BME280;33780;51.034;7.120;2023-02-10T06:58:50;102920.28;;;1.02;70.94
48015;BME280;33780;51.034;7.120;2023-02-10T07:01:18;102930.84;;;1.01;71.15
48015;BME280;33780;51.034;7.120;2023-02-10T07:03:44;102932.59;;;1.00;70.79
48015;BME280;33780;51.034;7.120;2023-02-10T07:06:16;102937.00;;;1.00;71.09
48015;BME280;33780;51.034;7.120;2023-02-10T07:08:46;102940.50;;;1.00;71.23
48015;BME280;33780;51.034;7.120;2023-02-10T07:11:19;102934.38;;;1.00;70.94
48015;BME280;33780;51.034;7.120;2023-02-10T07:13:44;102943.16;;;1.00;70.96
48015;BME280;33780;51.034;7.120;2023-02-10T07:16:10;102941.38;;;1.01;71.35
48015;BME280;33780;51.034;7.120;2023-02-10T07:18:39;102939.63;;;1.01;71.70
48015;BME280;33780;51.034;7.120;2023-02-10T07:21:04;102945.75;;;1.02;71.21
48015;BME280;33780;51.034;7.120;2023-02-10T07:23:30;102943.09;;;1.03;70.98
48015;BME280;33780;51.034;7.120;2023-02-10T07:25:55;102947.47;;;1.06;71.41
48015;BME280;33780;51.034;7.120;2023-02-10T07:28:23;102945.72;;;1.06;71.26
48015;BME280;33780;51.034;7.120;2023-02-10T07:30:48;102938.66;;;1.10;71.83
48015;BME280;33780;51.034;7.120;2023-02-10T07:33:17;102937.78;;;1.11;71.83
48015;BME280;33780;51.034;7.120;2023-02-10T07:35:42;102936.00;;;1.13;71.74
48015;BME280;33780;51.034;7.120;2023-02-10T07:38:07;102939.47;;;1.15;71.05
48015;BME280;33780;51.034;7.120;2023-02-10T07:40:39;102930.66;;;1.17;71.67
48015;BME280;33780;51.034;7.120;2023-02-10T07:43:07;102936.78;;;1.19;71.26
48015;BME280;33780;51.034;7.120;2023-02-10T07:45:32;102929.69;;;1.23;71.31
48015;BME280;33780;51.034;7.120;2023-02-10T07:47:58;102929.69;;;1.25;72.06
48015;BME280;33780;51.034;7.120;2023-02-10T07:50:24;102931.44;;;1.27;72.27
48015;BME280;33780;51.034;7.120;2023-02-10T07:52:50;102927.88;;;1.30;71.46
48015;BME280;33780;51.034;7.120;2023-02-10T07:55:15;102930.50;;;1.31;71.98
48015;BME280;33780;51.034;7.120;2023-02-10T07:57:41;102933.09;;;1.34;71.45
48015;BME280;33780;51.034;7.120;2023-02-10T08:00:10;102937.47;;;1.35;71.78
48015;BME280;33780;51.034;7.120;2023-02-10T08:02:37;102940.94;;;1.39;71.57
48015;BME280;33780;51.034;7.120;2023-02-10T08:05:02;102946.19;;;1.40;72.02
48015;BME280;33780;51.034;7.120;2023-02-10T08:07:28;102947.94;;;1.41;72.11
48015;BME280;33780;51.034;7.120;2023-02-10T08:09:53;102942.66;;;1.43;72.06
48015;BME280;33780;51.034;7.120;2023-02-10T08:12:18;102942.66;;;1.43;71.68
48015;BME280;33780;51.034;7.120;2023-02-10T08:14:45;102931.22;;;1.45;72.48
48015;BME280;33780;51.034;7.120;2023-02-10T08:17:10;102939.13;;;1.47;72.49
48015;BME280;33780;51.034;7.120;2023-02-10T08:19:36;102935.56;;;1.48;72.63
48015;BME280;33780;51.034;7.120;2023-02-10T08:22:05;102945.22;;;1.50;71.98
48015;BME280;33780;51.034;7.120;2023-02-10T08:24:33;102935.50;;;1.52;71.99
48015;BME280;33780;51.034;7.120;2023-02-10T08:26:59;102932.84;;;1.54;72.09
48015;BME280;33780;51.034;7.120;2023-02-10T08:29:24;102925.78;;;1.56;72.17
48015;BME280;33780;51.034;7.120;2023-02-10T08:31:52;102932.78;;;1.59;72.35
48015;BME280;33780;51.034;7.120;2023-02-10T08:34:19;102930.13;;;1.62;73.02
48015;BME280;33780;51.034;7.120;2023-02-10T08:36:45;102930.97;;;1.64;72.33
48015;BME280;33780;51.034;7.120;2023-02-10T08:42:05;102938.84;;;1.68;73.12
48015;BME280;33780;51.034;7.120;2023-02-10T08:44:37;102941.41;;;1.71;72.67
48015;BME280;33780;51.034;7.120;2023-02-10T08:47:07;102950.22;;;1.72;72.60
48015;BME280;33780;51.034;7.120;2023-02-10T08:49:43;102948.41;;;1.75;72.66
48015;BME280;33780;51.034;7.120;2023-02-10T08:52:17;102951.88;;;1.77;72.69
48015;BME280;33780;51.034;7.120;2023-02-10T08:54:46;102957.13;;;1.82;73.63
48015;BME280;33780;51.034;7.120;2023-02-10T08:57:16;102961.50;;;1.85;72.97
48015;BME280;33780;51.034;7.120;2023-02-10T08:59:42;102954.41;;;1.88;72.80
48015;BME280;33780;51.034;7.120;2023-02-10T09:02:14;102958.72;;;1.92;73.15
48015;BME280;33780;51.034;7.120;2023-02-10T09:04:42;102960.44;;;1.96;73.01
48015;BME280;33780;51.034;7.120;2023-02-10T09:07:07;102963.94;;;2.00;72.69
48015;BME280;33780;51.034;7.120;2023-02-10T09:09:38;102959.50;;;2.02;73.13
48015;BME280;33780;51.034;7.120;2023-02-10T09:12:04;102962.09;;;2.05;73.40
48015;BME280;33780;51.034;7.120;2023-02-10T09:14:32;102956.75;;;2.08;73.30
48015;BME280;33780;51.034;7.120;2023-02-10T09:17:01;102955.81;;;2.10;73.32
48015;BME280;33780;51.034;7.120;2023-02-10T09:19:29;102955.75;;;2.15;73.46
48015;BME280;33780;51.034;7.120;2023-02-10T09:21:57;102953.97;;;2.19;73.59
48015;BME280;33780;51.034;7.120;2023-02-10T09:24:25;102949.50;;;2.22;73.59
48015;BME280;33780;51.034;7.120;2023-02-10T09:26:53;102954.72;;;2.27;73.39
48015;BME280;33780;51.034;7.120;2023-02-10T09:29:18;102966.09;;;2.30;73.37
48015;BME280;33780;51.034;7.120;2023-02-10T09:31:44;102964.31;;;2.31;73.71
48015;BME280;33780;51.034;7.120;2023-02-10T09:34:09;102971.31;;;2.33;73.70
48015;BME280;33780;51.034;7.120;2023-02-10T09:36:34;102971.31;;;2.35;73.84
48015;BME280;33780;51.034;7.120;2023-02-10T09:39:00;102970.44;;;2.36;73.73
48015;BME280;33780;51.034;7.120;2023-02-10T09:47:01;102960.59;;;2.44;73.60
48015;BME280;33780;51.034;7.120;2023-02-10T09:49:51;102958.78;;;2.48;73.67
48015;BME280;33780;51.034;7.120;2023-02-10T09:55:15;102969.28;;;2.52;73.43
48015;BME280;33780;51.034;7.120;2023-02-10T09:57:48;102974.53;;;2.55;74.29
48015;BME280;33780;51.034;7.120;2023-02-10T10:02:49;102980.63;;;2.59;73.85
48015;BME280;33780;51.034;7.120;2023-02-10T10:08:17;102985.81;;;2.63;74.45
48015;BME280;33780;51.034;7.120;2023-02-10T10:10:45;102986.66;;;2.67;73.95
48015;BME280;33780;51.034;7.120;2023-02-10T10:13:14;102989.22;;;2.73;74.46
48015;BME280;33780;51.034;7.120;2023-02-10T10:15:56;102992.59;;;2.80;74.57
48015;BME280;33780;51.034;7.120;2023-02-10T10:18:39;102999.53;;;2.88;74.38
48015;BME280;33780;51.034;7.120;2023-02-10T10:21:20;102997.63;;;2.95;74.28
48015;BME280;33780;51.034;7.120;2023-02-10T10:26:56;102993.88;;;3.08;74.64
48015;BME280;33780;51.034;7.120;2023-02-10T10:29:48;102997.31;;;3.13;74.67
48015;BME280;33780;51.034;7.120;2023-02-10T10:32:36;103008.66;;;3.18;74.26
48015;BME280;33780;51.034;7.120;2023-02-10T10:35:11;103010.34;;;3.24;74.51
48015;BME280;33780;51.034;7.120;2023-02-10T10:37:39;102994.44;;;3.25;74.51
48015;BME280;33780;51.034;7.120;2023-02-10T10:40:06;102990.84;;;3.29;74.71
48015;BME280;33780;51.034;7.120;2023-02-10T10:42:39;102986.28;;;3.36;74.19
48015;BME280;33780;51.034;7.120;2023-02-10T10:45:11;102991.47;;;3.42;74.52
48015;BME280;33780;51.034;7.120;2023-02-10T10:47:44;102989.59;;;3.47;74.85
48015;BME280;33780;51.034;7.120;2023-02-10T10:50:19;102989.47;;;3.53;74.95
48015;BME280;33780;51.034;7.120;2023-02-10T10:52:46;102984.03;;;3.61;74.74
48015;BME280;33780;51.034;7.120;2023-02-10T10:55:24;102982.16;;;3.66;74.46
48015;BME280;33780;51.034;7.120;2023-02-10T10:57:53;102967.00;;;3.73;74.77
48015;BME280;33780;51.034;7.120;2023-02-10T11:00:25;102962.47;;;3.79;74.48
48015;BME280;33780;51.034;7.120;2023-02-10T11:03:02;102967.56;;;3.88;74.79
48015;BME280;33780;51.034;7.120;2023-02-10T11:05:33;102966.53;;;3.96;74.40
48015;BME280;33780;51.034;7.120;2023-02-10T11:08:01;102953.13;;;4.02;74.85
48015;BME280;33780;51.034;7.120;2023-02-10T11:10:47;102952.91;;;4.11;75.06
48015;BME280;33780;51.034;7.120;2023-02-10T11:13:23;102950.97;;;4.19;74.92
48015;BME280;33780;51.034;7.120;2023-02-10T11:15:59;102938.44;;;4.25;75.25
48015;BME280;33780;51.034;7.120;2023-02-10T11:18:26;102937.41;;;4.33;74.52
48015;BME280;33780;51.034;7.120;2023-02-10T11:21:00;102934.59;;;4.39;75.07
48015;BME280;33780;51.034;7.120;2023-02-10T11:23:27;102945.03;;;4.45;74.90
48015;BME280;33780;51.034;7.120;2023-02-10T11:28:44;102933.19;;;4.60;75.05
48015;BME280;33780;51.034;7.120;2023-02-10T11:31:29;102935.66;;;4.66;74.72
48015;BME280;33780;51.034;7.120;2023-02-10T11:36:46;102925.66;;;4.77;74.55
48015;BME280;33780;51.034;7.120;2023-02-10T11:39:25;102913.13;;;4.82;74.47
48015;BME280;33780;51.034;7.120;2023-02-10T11:41:53;102912.09;;;4.89;74.24
48015;BME280;33780;51.034;7.120;2023-02-10T11:44:25;102909.25;;;4.95;74.26
48015;BME280;33780;51.034;7.120;2023-02-10T11:47:10;102909.06;;;5.03;74.66
48015;BME280;33780;51.034;7.120;2023-02-10T11:49:42;102908.84;;;5.10;74.47
48015;BME280;33780;51.034;7.120;2023-02-10T11:52:09;102912.22;;;5.15;74.54
48015;BME280;33780;51.034;7.120;2023-02-10T11:54:34;102901.47;;;5.20;73.85
48015;BME280;33780;51.034;7.120;2023-02-10T11:57:05;102897.78;;;5.26;74.14
48015;BME280;33780;51.034;7.120;2023-02-10T12:05:47;102898.56;;;5.29;73.50
48015;BME280;33780;51.034;7.120;2023-02-10T12:11:28;102890.59;;;5.29;73.32
48015;BME280;33780;51.034;7.120;2023-02-10T12:14:28;102890.59;;;5.29;73.17
48015;BME280;33780;51.034;7.120;2023-02-10T12:17:14;102902.91;;;5.32;73.26
48015;BME280;33780;51.034;7.120;2023-02-10T12:20:02;102892.25;;;5.33;73.86
48015;BME280;33780;51.034;7.120;2023-02-10T12:39:23;102862.34;;;5.58;73.40
48015;BME280;33780;51.034;7.120;2023-02-10T12:55:13;102838.44;;;6.14;72.72
48015;BME280;33780;51.034;7.120;2023-02-10T12:57:59;102835.56;;;6.20;72.93
48015;BME280;33780;51.034;7.120;2023-02-10T13:00:31;102833.53;;;6.26;72.54
48015;BME280;33780;51.034;7.120;2023-02-10T13:03:05;102831.63;;;6.31;72.49
48015;BME280;33780;51.034;7.120;2023-02-10T13:05:41;102836.81;;;6.34;72.39
48015;BME280;33780;51.034;7.120;2023-02-10T13:08:23;102826.91;;;6.40;72.38
48015;BME280;33780;51.034;7.120;2023-02-10T13:10:53;102825.81;;;6.45;72.36
48015;BME280;33780;51.034;7.120;2023-02-10T13:13:28;102829.13;;;6.52;72.02
48015;BME280;33780;51.034;7.120;2023-02-10T13:16:05;102819.19;;;6.57;71.64
48015;BME280;33780;51.034;7.120;2023-02-10T13:18:40;102813.75;;;6.60;72.08
48015;BME280;33780;51.034;7.120;2023-02-10T13:21:17;102806.50;;;6.65;71.92
48015;BME280;33780;51.034;7.120;2023-02-10T13:23:48;102804.59;;;6.69;71.58
48015;BME280;33780;51.034;7.120;2023-02-10T13:29:34;102804.47;;;6.72;70.95
48015;BME280;33780;51.034;7.120;2023-02-10T13:32:13;102801.88;;;6.70;71.17
48015;BME280;33780;51.034;7.120;2023-02-10T13:34:44;102796.63;;;6.69;71.08
48015;BME280;33780;51.034;7.120;2023-02-10T13:37:15;102786.97;;;6.66;70.80
48015;BME280;33780;51.034;7.120;2023-02-10T13:39:59;102792.34;;;6.64;70.73
48015;BME280;33780;51.034;7.120;2023-02-10T13:42:32;102792.34;;;6.63;70.57
48015;BME280;33780;51.034;7.120;2023-02-10T13:45:06;102792.41;;;6.61;70.65
48015;BME280;33780;51.034;7.120;2023-02-10T13:47:48;102782.56;;;6.65;70.35
48015;BME280;33780;51.034;7.120;2023-02-10T13:52:58;102788.50;;;6.72;69.73
48015;BME280;33780;51.034;7.120;2023-02-10T13:58:16;102792.41;;;6.86;68.88
48015;BME280;33780;51.034;7.120;2023-02-10T14:00:50;102791.31;;;6.92;68.42
48015;BME280;33780;51.034;7.120;2023-02-10T14:06:06;102781.28;;;6.98;68.08
48015;BME280;33780;51.034;7.120;2023-02-10T14:08:43;102786.59;;;6.98;67.64
48015;BME280;33780;51.034;7.120;2023-02-10T14:13:41;102782.88;;;7.04;66.49
48015;BME280;33780;51.034;7.120;2023-02-10T14:16:28;102787.19;;;7.07;66.13
48015;BME280;33780;51.034;7.120;2023-02-10T14:19:19;102783.63;;;7.08;66.63
48015;BME280;33780;51.034;7.120;2023-02-10T14:21:48;102779.16;;;7.08;65.87
48015;BME280;33780;51.034;7.120;2023-02-10T14:24:24;102775.50;;;7.11;65.85
48015;BME280;33780;51.034;7.120;2023-02-10T14:26:57;102771.97;;;7.10;65.80
48015;BME280;33780;51.034;7.120;2023-02-10T14:29:27;102765.72;;;7.11;65.25
48015;BME280;33780;51.034;7.120;2023-02-10T14:31:58;102762.06;;;7.14;65.42
48015;BME280;33780;51.034;7.120;2023-02-10T14:34:35;102766.41;;;7.16;63.82
48015;BME280;33780;51.034;7.120;2023-02-10T14:37:17;102760.13;;;7.19;64.31
48015;BME280;33780;51.034;7.120;2023-02-10T14:39:58;102761.00;;;7.19;65.34
48015;BME280;33780;51.034;7.120;2023-02-10T14:42:27;102768.91;;;7.21;64.69
48015;BME280;33780;51.034;7.120;2023-02-10T14:45:00;102764.44;;;7.21;65.37
48015;BME280;33780;51.034;7.120;2023-02-10T14:47:37;102755.59;;;7.21;65.15